sensor_id;sensor_type;location;lat;lon;timestamp;temperature;humidity
5711;DHT22;61291;52.524;13.422;2023-02-28T00:00:01;2.60;99.90
5711;DHT22;61291;52.524;13.422;2023-02-28T00:02:26;2.60;99.90
5711;DHT22;61291;52.524;13.422;2023-02-28T00:04:52;2.60;99.90
5711;DHT22;61291;52.524;13.422;2023-02-28T00:07:27;2.60;99.90
5711;DHT22;61291;52.524;13.422;2023-02-28T00:09:53;2.60;99.90
5711;DHT22;61291;52.524;13.422;2023-02-28T00:12:18;2.60;99.90
5711;DHT22;61291;52.524;13.422;2023-02-28T00:14:44;2.60;99.90
5711;DHT22;61291;52.524;13.422;2023-02-28T00:17:09;2.60;99.90
5711;DHT22;61291;52.524;13.422;2023-02-28T00:19:35;2.60;99.90
5711;DHT22;61291;52.524;13.422;2023-02-28T00:22:00;2.60;99.90
5711;DHT22;61291;52.524;13.422;2023-02-28T00:24:25;2.60;99.90
5711;DHT22;61291;52.524;13.422;2023-02-28T00:26:51;2.60;99.90
5711;DHT22;61291;52.524;13.422;2023-02-28T00:29:16;2.70;99.90
5711;DHT22;61291;52.524;13.422;2023-02-28T00:31:42;2.70;99.90
5711;DHT22;61291;52.524;13.422;2023-02-28T00:34:07;2.70;99.90
5711;DHT22;61291;52.524;13.422;2023-02-28T00:36:33;2.70;99.90
5711;DHT22;61291;52.524;13.422;2023-02-28T00:38:58;2.80;99.90
5711;DHT22;61291;52.524;13.422;2023-02-28T00:41:24;2.70;99.90
5711;DHT22;61291;52.524;13.422;2023-02-28T00:43:49;2.80;99.90
5711;DHT22;61291;52.524;13.422;2023-02-28T00:46:15;2.80;99.90
5711;DHT22;61291;52.524;13.422;2023-02-28T00:48:40;2.80;99.90
5711;DHT22;61291;52.524;13.422;2023-02-28T00:51:06;2.90;99.90
5711;DHT22;61291;52.524;13.422;2023-02-28T00:53:32;2.90;99.90
5711;DHT22;61291;52.524;13.422;2023-02-28T00:56:00;2.90;99.90
5711;DHT22;61291;52.524;13.422;2023-02-28T00:58:26;2.90;99.90
5711;DHT22;61291;52.524;13.422;2023-02-28T01:00:52;2.90;99.90
5711;DHT22;61291;52.524;13.422;2023-02-28T01:03:19;2.90;99.90
5711;DHT22;61291;52.524;13.422;2023-02-28T01:05:46;2.80;99.90
5711;DHT22;61291;52.524;13.422;2023-02-28T01:08:12;2.80;99.90
5711;DHT22;61291;52.524;13.422;2023-02-28T01:10:39;2.70;99.90
5711;DHT22;61291;52.524;13.422;2023-02-28T01:13:04;2.60;99.90
5711;DHT22;61291;52.524;13.422;2023-02-28T01:15:30;2.50;99.90
5711;DHT22;61291;52.524;13.422;2023-02-28T01:17:57;2.50;99.90
5711;DHT22;61291;52.524;13.422;2023-02-28T01:20:23;2.40;99.90
5711;DHT22;61291;52.524;13.422;2023-02-28T01:22:48;2.30;99.90
5711;DHT22;61291;52.524;13.422;2023-02-28T01:25:14;2.20;99.90
5711;DHT22;61291;52.524;13.422;2023-02-28T01:27:39;2.20;99.90
5711;DHT22;61291;52.524;13.422;2023-02-28T01:30:06;2.10;99.90
5711;DHT22;61291;52.524;13.422;2023-02-28T01:32:32;2.10;99.90
5711;DHT22;61291;52.524;13.422;2023-02-28T01:34:57;2.10;99.90
5711;DHT22;61291;52.524;13.422;2023-02-28T01:37:23;2.10;99.90
5711;DHT22;61291;52.524;13.422;2023-02-28T01:39:48;2.00;99.90
5711;DHT22;61291;52.524;13.422;2023-02-28T01:42:14;2.00;99.90
5711;DHT22;61291;52.524;13.422;2023-02-28T01:47:26;2.00;99.90
5711;DHT22;61291;52.524;13.422;2023-02-28T01:49:52;1.90;99.90
5711;DHT22;61291;52.524;13.422;2023-02-28T01:52:18;1.80;99.90
5711;DHT22;61291;52.524;13.422;2023-02-28T01:54:48;1.70;99.90
5711;DHT22;61291;52.524;13.422;2023-02-28T01:57:19;1.60;99.90
5711;DHT22;61291;52.524;13.422;2023-02-28T01:59:57;1.40;99.90
5711;DHT22;61291;52.524;13.422;2023-02-28T02:02:27;1.40;99.90
5711;DHT22;61291;52.524;13.422;2023-02-28T02:05:04;1.30;99.90
5711;DHT22;61291;52.524;13.422;2023-02-28T02:07:35;1.30;99.90
5711;DHT22;61291;52.524;13.422;2023-02-28T02:13:05;1.00;99.90
5711;DHT22;61291;52.524;13.422;2023-02-28T02:15:40;0.90;99.90
5711;DHT22;61291;52.524;13.422;2023-02-28T02:18:36;0.70;99.90
5711;DHT22;61291;52.524;13.422;2023-02-28T02:24:41;0.60;99.90
5711;DHT22;61291;52.524;13.422;2023-02-28T02:30:22;0.20;99.90
5711;DHT22;61291;52.524;13.422;2023-02-28T02:40:44;-0.20;99.90
5711;DHT22;61291;52.524;13.422;2023-02-28T02:43:19;-0.30;99.90
5711;DHT22;61291;52.524;13.422;2023-02-28T02:45:55;-0.30;99.90
5711;DHT22;61291;52.524;13.422;2023-02-28T02:48:25;-0.40;99.90
5711;DHT22;61291;52.524;13.422;2023-02-28T02:50:55;-0.40;99.90
5711;DHT22;61291;52.524;13.422;2023-02-28T02:53:26;-0.40;99.90
5711;DHT22;61291;52.524;13.422;2023-02-28T02:55:55;-0.50;99.90
5711;DHT22;61291;52.524;13.422;2023-02-28T02:58:26;-0.50;99.90
5711;DHT22;61291;52.524;13.422;2023-02-28T03:00:56;-0.60;99.90
5711;DHT22;61291;52.524;13.422;2023-02-28T03:03:23;-0.60;99.90
5711;DHT22;61291;52.524;13.422;2023-02-28T03:05:57;-0.50;99.90
5711;DHT22;61291;52.524;13.422;2023-02-28T03:08:24;-0.60;99.90
5711;DHT22;61291;52.524;13.422;2023-02-28T03:10:51;-0.60;99.90
5711;DHT22;61291;52.524;13.422;2023-02-28T03:13:42;-0.60;99.90
5711;DHT22;61291;52.524;13.422;2023-02-28T03:16:28;-0.70;99.90
5711;DHT22;61291;52.524;13.422;2023-02-28T03:19:25;-0.80;99.90
5711;DHT22;61291;52.524;13.422;2023-02-28T03:22:14;-0.70;99.90
5711;DHT22;61291;52.524;13.422;2023-02-28T03:25:06;-0.70;99.90
5711;DHT22;61291;52.524;13.422;2023-02-28T03:27:49;-0.70;99.90
5711;DHT22;61291;52.524;13.422;2023-02-28T03:33:03;-0.80;99.90
5711;DHT22;61291;52.524;13.422;2023-02-28T03:35:50;-0.80;99.90
5711;DHT22;61291;52.524;13.422;2023-02-28T03:40:50;-0.80;99.90
5711;DHT22;61291;52.524;13.422;2023-02-28T03:43:29;-0.90;99.90
5711;DHT22;61291;52.524;13.422;2023-02-28T03:45:59;-0.80;99.90
5711;DHT22;61291;52.524;13.422;2023-02-28T03:48:38;-0.80;99.90
5711;DHT22;61291;52.524;13.422;2023-02-28T03:51:07;-0.80;99.90
5711;DHT22;61291;52.524;13.422;2023-02-28T03:53:44;-0.80;99.90
5711;DHT22;61291;52.524;13.422;2023-02-28T03:56:27;-0.80;99.90
5711;DHT22;61291;52.524;13.422;2023-02-28T03:59:00;-0.80;99.90
5711;DHT22;61291;52.524;13.422;2023-02-28T04:01:44;-0.80;99.90
5711;DHT22;61291;52.524;13.422;2023-02-28T04:04:11;-0.80;99.90
5711;DHT22;61291;52.524;13.422;2023-02-28T04:06:37;-0.90;99.90
5711;DHT22;61291;52.524;13.422;2023-02-28T04:09:05;-0.90;99.90
5711;DHT22;61291;52.524;13.422;2023-02-28T04:11:51;-0.80;99.90
5711;DHT22;61291;52.524;13.422;2023-02-28T04:14:17;-0.80;99.90
5711;DHT22;61291;52.524;13.422;2023-02-28T04:16:43;-0.90;99.90
5711;DHT22;61291;52.524;13.422;2023-02-28T04:19:09;-1.00;99.90
5711;DHT22;61291;52.524;13.422;2023-02-28T04:21:37;-1.20;99.90
5711;DHT22;61291;52.524;13.422;2023-02-28T04:24:07;-1.30;99.90
5711;DHT22;61291;52.524;13.422;2023-02-28T04:26:35;-1.40;99.90
5711;DHT22;61291;52.524;13.422;2023-02-28T04:29:04;-1.40;99.90
5711;DHT22;61291;52.524;13.422;2023-02-28T04:31:30;-1.50;99.90
5711;DHT22;61291;52.524;13.422;2023-02-28T04:33:56;-1.60;99.90
5711;DHT22;61291;52.524;13.422;2023-02-28T04:36:22;-1.60;99.90
5711;DHT22;61291;52.524;13.422;2023-02-28T04:38:48;-1.70;99.90
5711;DHT22;61291;52.524;13.422;2023-02-28T04:41:14;-1.70;99.90
5711;DHT22;61291;52.524;13.422;2023-02-28T04:43:40;-1.80;99.90
5711;DHT22;61291;52.524;13.422;2023-02-28T04:46:06;-1.80;99.90
5711;DHT22;61291;52.524;13.422;2023-02-28T04:48:34;-1.70;99.90
5711;DHT22;61291;52.524;13.422;2023-02-28T04:51:01;-1.80;99.90
5711;DHT22;61291;52.524;13.422;2023-02-28T04:53:28;-1.70;99.90
5711;DHT22;61291;52.524;13.422;2023-02-28T04:55:54;-1.80;99.90
5711;DHT22;61291;52.524;13.422;2023-02-28T04:58:20;-1.80;99.90
5711;DHT22;61291;52.524;13.422;2023-02-28T05:00:48;-1.80;99.90
5711;DHT22;61291;52.524;13.422;2023-02-28T05:03:13;-1.90;99.90
5711;DHT22;61291;52.524;13.422;2023-02-28T05:05:39;-1.80;99.90
5711;DHT22;61291;52.524;13.422;2023-02-28T05:08:05;-1.80;99.90
5711;DHT22;61291;52.524;13.422;2023-02-28T05:10:30;-1.90;99.90
5711;DHT22;61291;52.524;13.422;2023-02-28T05:12:56;-1.80;99.90
5711;DHT22;61291;52.524;13.422;2023-02-28T05:15:21;-1.70;99.90
5711;DHT22;61291;52.524;13.422;2023-02-28T05:17:47;-1.60;99.90
5711;DHT22;61291;52.524;13.422;2023-02-28T05:20:12;-1.60;99.90
5711;DHT22;61291;52.524;13.422;2023-02-28T05:22:41;-1.60;99.90
5711;DHT22;61291;52.524;13.422;2023-02-28T05:25:10;-1.60;99.90
5711;DHT22;61291;52.524;13.422;2023-02-28T05:27:37;-1.60;99.90
5711;DHT22;61291;52.524;13.422;2023-02-28T05:30:03;-1.60;99.90
5711;DHT22;61291;52.524;13.422;2023-02-28T05:32:29;-1.70;99.90
5711;DHT22;61291;52.524;13.422;2023-02-28T05:34:55;-1.80;99.90
5711;DHT22;61291;52.524;13.422;2023-02-28T05:37:20;-1.80;99.90
5711;DHT22;61291;52.524;13.422;2023-02-28T05:39:46;-1.80;99.90
5711;DHT22;61291;52.524;13.422;2023-02-28T05:42:11;-1.80;99.90
5711;DHT22;61291;52.524;13.422;2023-02-28T05:44:39;-1.80;99.90
5711;DHT22;61291;52.524;13.422;2023-02-28T05:47:05;-1.80;99.90
5711;DHT22;61291;52.524;13.422;2023-02-28T05:49:33;-1.90;99.90
5711;DHT22;61291;52.524;13.422;2023-02-28T05:51:59;-1.80;99.90
5711;DHT22;61291;52.524;13.422;2023-02-28T05:54:25;-1.80;99.90
5711;DHT22;61291;52.524;13.422;2023-02-28T05:56:50;-1.80;99.90
5711;DHT22;61291;52.524;13.422;2023-02-28T05:59:16;-1.80;99.90
5711;DHT22;61291;52.524;13.422;2023-02-28T06:01:43;-1.80;99.90
5711;DHT22;61291;52.524;13.422;2023-02-28T06:04:18;-1.70;99.90
5711;DHT22;61291;52.524;13.422;2023-02-28T06:06:48;-1.70;99.90
5711;DHT22;61291;52.524;13.422;2023-02-28T06:09:13;-1.70;99.90
5711;DHT22;61291;52.524;13.422;2023-02-28T06:11:39;-1.70;99.90
5711;DHT22;61291;52.524;13.422;2023-02-28T06:14:05;-1.70;99.90
5711;DHT22;61291;52.524;13.422;2023-02-28T06:16:33;-1.60;99.90
5711;DHT22;61291;52.524;13.422;2023-02-28T06:19:00;-1.40;99.90
5711;DHT22;61291;52.524;13.422;2023-02-28T06:21:27;-1.20;99.90
5711;DHT22;61291;52.524;13.422;2023-02-28T06:23:53;-1.10;99.90
5711;DHT22;61291;52.524;13.422;2023-02-28T06:26:20;-0.90;99.90
5711;DHT22;61291;52.524;13.422;2023-02-28T06:28:46;-0.70;99.90
5711;DHT22;61291;52.524;13.422;2023-02-28T06:31:13;-0.50;99.90
5711;DHT22;61291;52.524;13.422;2023-02-28T06:33:40;-0.30;99.90
5711;DHT22;61291;52.524;13.422;2023-02-28T06:36:06;-0.10;99.90
5711;DHT22;61291;52.524;13.422;2023-02-28T06:38:34;0.10;99.90
5711;DHT22;61291;52.524;13.422;2023-02-28T06:41:00;0.30;99.90
5711;DHT22;61291;52.524;13.422;2023-02-28T06:43:29;0.70;99.90
5711;DHT22;61291;52.524;13.422;2023-02-28T06:45:57;1.30;99.90
5711;DHT22;61291;52.524;13.422;2023-02-28T06:48:24;1.60;99.90
5711;DHT22;61291;52.524;13.422;2023-02-28T06:50:49;1.70;99.90
5711;DHT22;61291;52.524;13.422;2023-02-28T06:53:15;1.80;99.90
5711;DHT22;61291;52.524;13.422;2023-02-28T06:55:41;2.10;99.90
5711;DHT22;61291;52.524;13.422;2023-02-28T06:58:06;2.90;99.90
5711;DHT22;61291;52.524;13.422;2023-02-28T07:00:43;3.40;99.90
5711;DHT22;61291;52.524;13.422;2023-02-28T07:03:09;3.30;99.90
5711;DHT22;61291;52.524;13.422;2023-02-28T07:05:36;3.10;99.90
5711;DHT22;61291;52.524;13.422;2023-02-28T07:08:02;2.90;99.90
5711;DHT22;61291;52.524;13.422;2023-02-28T07:10:28;2.70;99.90
5711;DHT22;61291;52.524;13.422;2023-02-28T07:12:54;2.50;99.90
5711;DHT22;61291;52.524;13.422;2023-02-28T07:15:19;2.40;99.90
5711;DHT22;61291;52.524;13.422;2023-02-28T07:17:45;2.30;99.90
5711;DHT22;61291;52.524;13.422;2023-02-28T07:20:11;2.20;99.90
5711;DHT22;61291;52.524;13.422;2023-02-28T07:22:37;2.10;99.90
5711;DHT22;61291;52.524;13.422;2023-02-28T07:25:04;2.10;99.90
5711;DHT22;61291;52.524;13.422;2023-02-28T07:27:30;2.10;99.90
5711;DHT22;61291;52.524;13.422;2023-02-28T07:29:55;2.10;99.90
5711;DHT22;61291;52.524;13.422;2023-02-28T07:32:21;2.10;99.90
5711;DHT22;61291;52.524;13.422;2023-02-28T07:34:46;2.10;99.90
5711;DHT22;61291;52.524;13.422;2023-02-28T07:37:12;2.20;99.90
5711;DHT22;61291;52.524;13.422;2023-02-28T07:39:37;2.30;99.90
5711;DHT22;61291;52.524;13.422;2023-02-28T07:42:06;2.30;99.90
5711;DHT22;61291;52.524;13.422;2023-02-28T07:44:34;2.40;99.90
5711;DHT22;61291;52.524;13.422;2023-02-28T07:47:00;2.50;99.90
5711;DHT22;61291;52.524;13.422;2023-02-28T07:49:26;2.50;99.90
5711;DHT22;61291;52.524;13.422;2023-02-28T07:51:51;2.60;99.90
5711;DHT22;61291;52.524;13.422;2023-02-28T07:54:17;2.60;99.90
5711;DHT22;61291;52.524;13.422;2023-02-28T07:56:42;2.70;99.90
5711;DHT22;61291;52.524;13.422;2023-02-28T07:59:08;2.70;99.90
5711;DHT22;61291;52.524;13.422;2023-02-28T08:01:34;2.80;99.90
5711;DHT22;61291;52.524;13.422;2023-02-28T08:04:00;2.80;99.90
5711;DHT22;61291;52.524;13.422;2023-02-28T08:06:25;2.90;99.90
5711;DHT22;61291;52.524;13.422;2023-02-28T08:08:53;2.90;99.90
5711;DHT22;61291;52.524;13.422;2023-02-28T08:11:18;3.00;99.90
5711;DHT22;61291;52.524;13.422;2023-02-28T08:13:45;3.00;99.90
5711;DHT22;61291;52.524;13.422;2023-02-28T08:16:12;3.10;99.90
5711;DHT22;61291;52.524;13.422;2023-02-28T08:18:42;3.20;99.90
5711;DHT22;61291;52.524;13.422;2023-02-28T08:21:09;3.20;99.90
5711;DHT22;61291;52.524;13.422;2023-02-28T08:23:36;3.40;99.90
5711;DHT22;61291;52.524;13.422;2023-02-28T08:26:02;3.40;99.90
5711;DHT22;61291;52.524;13.422;2023-02-28T08:28:28;3.50;99.90
5711;DHT22;61291;52.524;13.422;2023-02-28T08:30:54;3.60;99.90
5711;DHT22;61291;52.524;13.422;2023-02-28T08:33:19;3.60;99.90
5711;DHT22;61291;52.524;13.422;2023-02-28T08:35:45;3.70;99.90
5711;DHT22;61291;52.524;13.422;2023-02-28T08:38:10;3.80;99.90
5711;DHT22;61291;52.524;13.422;2023-02-28T08:40:36;3.90;99.90
5711;DHT22;61291;52.524;13.422;2023-02-28T08:43:01;3.90;99.90
5711;DHT22;61291;52.524;13.422;2023-02-28T08:45:27;4.00;99.90
5711;DHT22;61291;52.524;13.422;2023-02-28T08:47:54;4.10;99.50
5711;DHT22;61291;52.524;13.422;2023-02-28T08:50:20;4.10;98.70
5711;DHT22;61291;52.524;13.422;2023-02-28T08:52:46;4.20;98.80
5711;DHT22;61291;52.524;13.422;2023-02-28T08:55:11;4.30;98.10
5711;DHT22;61291;52.524;13.422;2023-02-28T08:57:37;4.30;98.30
5711;DHT22;61291;52.524;13.422;2023-02-28T09:00:03;4.40;98.80
5711;DHT22;61291;52.524;13.422;2023-02-28T09:02:30;4.40;98.40
5711;DHT22;61291;52.524;13.422;2023-02-28T09:04:56;4.50;98.00
5711;DHT22;61291;52.524;13.422;2023-02-28T09:07:22;4.60;97.30
5711;DHT22;61291;52.524;13.422;2023-02-28T09:09:47;4.60;97.60
5711;DHT22;61291;52.524;13.422;2023-02-28T09:12:26;4.70;97.60
5711;DHT22;61291;52.524;13.422;2023-02-28T09:14:52;4.80;96.90
5711;DHT22;61291;52.524;13.422;2023-02-28T09:17:18;4.70;96.80
5711;DHT22;61291;52.524;13.422;2023-02-28T09:19:44;4.80;96.60
5711;DHT22;61291;52.524;13.422;2023-02-28T09:22:10;4.90;95.60
5711;DHT22;61291;52.524;13.422;2023-02-28T09:24:37;4.90;95.60
5711;DHT22;61291;52.524;13.422;2023-02-28T09:27:03;5.00;96.00
5711;DHT22;61291;52.524;13.422;2023-02-28T09:29:30;5.00;94.60
5711;DHT22;61291;52.524;13.422;2023-02-28T09:31:55;5.00;94.00
5711;DHT22;61291;52.524;13.422;2023-02-28T09:34:24;5.00;93.80
5711;DHT22;61291;52.524;13.422;2023-02-28T09:36:49;5.00;94.30
5711;DHT22;61291;52.524;13.422;2023-02-28T09:39:21;5.00;93.50
5711;DHT22;61291;52.524;13.422;2023-02-28T09:41:51;5.00;92.90
5711;DHT22;61291;52.524;13.422;2023-02-28T09:44:30;5.10;92.30
5711;DHT22;61291;52.524;13.422;2023-02-28T09:47:07;5.10;93.30
5711;DHT22;61291;52.524;13.422;2023-02-28T09:49:40;5.20;93.10
5711;DHT22;61291;52.524;13.422;2023-02-28T09:52:21;5.20;93.00
5711;DHT22;61291;52.524;13.422;2023-02-28T09:54:49;5.20;93.30
5711;DHT22;61291;52.524;13.422;2023-02-28T10:00:20;5.30;93.60
5711;DHT22;61291;52.524;13.422;2023-02-28T10:05:33;5.40;92.90
5711;DHT22;61291;52.524;13.422;2023-02-28T10:08:17;5.40;93.30
5711;DHT22;61291;52.524;13.422;2023-02-28T10:10:58;5.50;91.90
5711;DHT22;61291;52.524;13.422;2023-02-28T10:16:13;5.60;92.90
5711;DHT22;61291;52.524;13.422;2023-02-28T10:19:12;5.60;93.00
5711;DHT22;61291;52.524;13.422;2023-02-28T10:21:47;5.60;91.80
5711;DHT22;61291;52.524;13.422;2023-02-28T10:24:23;5.60;92.70
5711;DHT22;61291;52.524;13.422;2023-02-28T10:26:56;5.60;92.30
5711;DHT22;61291;52.524;13.422;2023-02-28T10:29:24;5.70;92.50
5711;DHT22;61291;52.524;13.422;2023-02-28T10:31:50;5.70;92.70
5711;DHT22;61291;52.524;13.422;2023-02-28T10:34:15;5.70;91.90
5711;DHT22;61291;52.524;13.422;2023-02-28T10:36:41;5.70;91.90
5711;DHT22;61291;52.524;13.422;2023-02-28T10:39:37;5.80;91.70
5711;DHT22;61291;52.524;13.422;2023-02-28T10:42:04;5.80;90.80
5711;DHT22;61291;52.524;13.422;2023-02-28T10:44:29;5.60;90.70
5711;DHT22;61291;52.524;13.422;2023-02-28T10:46:55;5.70;91.00
5711;DHT22;61291;52.524;13.422;2023-02-28T10:49:28;5.70;90.70
5711;DHT22;61291;52.524;13.422;2023-02-28T10:51:56;5.80;90.90
5711;DHT22;61291;52.524;13.422;2023-02-28T10:57:07;5.80;90.70
5711;DHT22;61291;52.524;13.422;2023-02-28T10:59:34;5.90;90.90
5711;DHT22;61291;52.524;13.422;2023-02-28T11:02:00;6.00;91.00
5711;DHT22;61291;52.524;13.422;2023-02-28T11:07:06;5.90;90.20
5711;DHT22;61291;52.524;13.422;2023-02-28T11:09:38;6.00;91.00
5711;DHT22;61291;52.524;13.422;2023-02-28T11:12:07;6.00;91.10
5711;DHT22;61291;52.524;13.422;2023-02-28T11:14:43;6.00;91.30
5711;DHT22;61291;52.524;13.422;2023-02-28T11:17:25;6.00;91.30
5711;DHT22;61291;52.524;13.422;2023-02-28T11:20:01;6.00;91.30
5711;DHT22;61291;52.524;13.422;2023-02-28T11:22:32;6.00;90.70
5711;DHT22;61291;52.524;13.422;2023-02-28T11:25:08;6.00;90.60
5711;DHT22;61291;52.524;13.422;2023-02-28T11:30:03;6.00;90.70
5711;DHT22;61291;52.524;13.422;2023-02-28T11:32:30;6.00;90.40
5711;DHT22;61291;52.524;13.422;2023-02-28T11:35:02;6.00;90.40
5711;DHT22;61291;52.524;13.422;2023-02-28T11:37:28;6.10;90.70
5711;DHT22;61291;52.524;13.422;2023-02-28T11:39:55;6.00;90.50
5711;DHT22;61291;52.524;13.422;2023-02-28T11:42:30;6.20;90.50
5711;DHT22;61291;52.524;13.422;2023-02-28T11:45:15;6.20;90.60
5711;DHT22;61291;52.524;13.422;2023-02-28T11:47:53;6.30;90.90
5711;DHT22;61291;52.524;13.422;2023-02-28T11:50:38;6.30;91.00
5711;DHT22;61291;52.524;13.422;2023-02-28T12:04:41;6.40;90.80
5711;DHT22;61291;52.524;13.422;2023-02-28T12:07:43;6.40;90.30
5711;DHT22;61291;52.524;13.422;2023-02-28T12:10:29;6.40;90.10
5711;DHT22;61291;52.524;13.422;2023-02-28T12:13:12;6.50;90.10
5711;DHT22;61291;52.524;13.422;2023-02-28T12:15:47;6.50;90.70
5711;DHT22;61291;52.524;13.422;2023-02-28T12:18:33;6.50;90.70
5711;DHT22;61291;52.524;13.422;2023-02-28T12:21:27;6.50;90.40
5711;DHT22;61291;52.524;13.422;2023-02-28T12:24:15;6.40;89.90
5711;DHT22;61291;52.524;13.422;2023-02-28T12:26:46;6.40;90.00
5711;DHT22;61291;52.524;13.422;2023-02-28T12:29:28;6.30;89.90
5711;DHT22;61291;52.524;13.422;2023-02-28T12:32:09;6.30;89.40
5711;DHT22;61291;52.524;13.422;2023-02-28T12:34:42;6.40;90.30
5711;DHT22;61291;52.524;13.422;2023-02-28T12:37:16;6.50;90.40
5711;DHT22;61291;52.524;13.422;2023-02-28T12:39:48;6.50;90.20
5711;DHT22;61291;52.524;13.422;2023-02-28T12:42:24;6.50;90.20
5711;DHT22;61291;52.524;13.422;2023-02-28T12:44:53;6.50;90.40
5711;DHT22;61291;52.524;13.422;2023-02-28T12:47:19;6.20;88.70
5711;DHT22;61291;52.524;13.422;2023-02-28T12:50:10;6.40;90.00
5711;DHT22;61291;52.524;13.422;2023-02-28T12:52:55;6.50;89.10
5711;DHT22;61291;52.524;13.422;2023-02-28T12:58:18;6.60;89.90
5711;DHT22;61291;52.524;13.422;2023-02-28T13:01:26;6.50;88.30
5711;DHT22;61291;52.524;13.422;2023-02-28T13:04:27;6.40;87.70
5711;DHT22;61291;52.524;13.422;2023-02-28T13:09:30;6.30;87.80
5711;DHT22;61291;52.524;13.422;2023-02-28T13:11:56;6.40;88.40
5711;DHT22;61291;52.524;13.422;2023-02-28T13:14:29;6.40;88.20
5711;DHT22;61291;52.524;13.422;2023-02-28T13:17:10;6.30;88.20
5711;DHT22;61291;52.524;13.422;2023-02-28T13:22:36;6.50;88.30
5711;DHT22;61291;52.524;13.422;2023-02-28T13:25:49;6.50;88.40
5711;DHT22;61291;52.524;13.422;2023-02-28T13:28:13;6.60;88.90
5711;DHT22;61291;52.524;13.422;2023-02-28T13:31:04;6.60;89.20
5711;DHT22;61291;52.524;13.422;2023-02-28T13:33:31;6.60;89.50
5711;DHT22;61291;52.524;13.422;2023-02-28T13:36:29;6.60;89.60
5711;DHT22;61291;52.524;13.422;2023-02-28T13:39:02;6.60;89.10
5711;DHT22;61291;52.524;13.422;2023-02-28T13:46:36;6.60;87.80
5711;DHT22;61291;52.524;13.422;2023-02-28T13:51:53;6.60;88.00
5711;DHT22;61291;52.524;13.422;2023-02-28T13:57:33;6.60;88.30
5711;DHT22;61291;52.524;13.422;2023-02-28T14:05:44;7.00;87.50
5711;DHT22;61291;52.524;13.422;2023-02-28T14:08:19;6.90;88.60
5711;DHT22;61291;52.524;13.422;2023-02-28T14:10:48;6.90;88.90
5711;DHT22;61291;52.524;13.422;2023-02-28T14:13:44;6.70;87.50
5711;DHT22;61291;52.524;13.422;2023-02-28T14:16:15;6.80;87.90
5711;DHT22;61291;52.524;13.422;2023-02-28T14:19:31;6.70;86.60
5711;DHT22;61291;52.524;13.422;2023-02-28T14:21:43;6.70;87.30
5711;DHT22;61291;52.524;13.422;2023-02-28T14:27:36;6.60;86.40
5711;DHT22;61291;52.524;13.422;2023-02-28T14:33:27;6.60;86.50
5711;DHT22;61291;52.524;13.422;2023-02-28T14:36:16;6.50;86.20
5711;DHT22;61291;52.524;13.422;2023-02-28T14:38:57;6.50;86.40
5711;DHT22;61291;52.524;13.422;2023-02-28T14:41:29;6.60;86.80
5711;DHT22;61291;52.524;13.422;2023-02-28T14:43:57;6.50;86.70
5711;DHT22;61291;52.524;13.422;2023-02-28T14:46:27;6.50;86.90
5711;DHT22;61291;52.524;13.422;2023-02-28T14:48:54;6.50;87.10
5711;DHT22;61291;52.524;13.422;2023-02-28T14:51:23;6.50;87.20
5711;DHT22;61291;52.524;13.422;2023-02-28T14:53:56;6.50;86.80
5711;DHT22;61291;52.524;13.422;2023-02-28T14:56:34;6.40;86.50
5711;DHT22;61291;52.524;13.422;2023-02-28T14:59:00;6.40;86.80
5711;DHT22;61291;52.524;13.422;2023-02-28T15:01:26;6.40;87.10
5711;DHT22;61291;52.524;13.422;2023-02-28T15:04:01;6.30;87.20
5711;DHT22;61291;52.524;13.422;2023-02-28T15:06:28;6.30;87.30
5711;DHT22;61291;52.524;13.422;2023-02-28T15:09:08;6.20;87.50
5711;DHT22;61291;52.524;13.422;2023-02-28T15:11:33;6.20;87.40
5711;DHT22;61291;52.524;13.422;2023-02-28T15:14:00;6.20;87.30
5711;DHT22;61291;52.524;13.422;2023-02-28T15:16:37;6.20;87.50
5711;DHT22;61291;52.524;13.422;2023-02-28T15:19:11;6.10;87.50
5711;DHT22;61291;52.524;13.422;2023-02-28T15:21:43;6.00;87.60
5711;DHT22;61291;52.524;13.422;2023-02-28T15:24:18;5.90;87.90
5711;DHT22;61291;52.524;13.422;2023-02-28T15:26:53;5.80;87.90
5711;DHT22;61291;52.524;13.422;2023-02-28T15:29:22;5.80;88.10
5711;DHT22;61291;52.524;13.422;2023-02-28T15:31:57;5.80;88.20
5711;DHT22;61291;52.524;13.422;2023-02-28T15:37:28;5.80;89.10
5711;DHT22;61291;52.524;13.422;2023-02-28T15:39:57;5.70;88.90
5711;DHT22;61291;52.524;13.422;2023-02-28T15:42:28;5.70;89.00
5711;DHT22;61291;52.524;13.422;2023-02-28T15:44:53;5.60;89.20
5711;DHT22;61291;52.524;13.422;2023-02-28T15:47:22;5.40;89.20
5711;DHT22;61291;52.524;13.422;2023-02-28T15:49:51;5.50;89.80
5711;DHT22;61291;52.524;13.422;2023-02-28T15:52:26;5.40;89.50
5711;DHT22;61291;52.524;13.422;2023-02-28T15:54:53;5.30;90.00
5711;DHT22;61291;52.524;13.422;2023-02-28T15:57:25;5.20;90.00
5711;DHT22;61291;52.524;13.422;2023-02-28T15:59:54;5.10;90.00
5711;DHT22;61291;52.524;13.422;2023-02-28T16:02:31;4.90;90.10
5711;DHT22;61291;52.524;13.422;2023-02-28T16:05:12;4.90;90.60
5711;DHT22;61291;52.524;13.422;2023-02-28T16:07:42;4.90;90.80
5711;DHT22;61291;52.524;13.422;2023-02-28T16:10:10;4.80;90.70
5711;DHT22;61291;52.524;13.422;2023-02-28T16:12:37;4.60;90.80
5711;DHT22;61291;52.524;13.422;2023-02-28T16:15:25;4.60;90.90
5711;DHT22;61291;52.524;13.422;2023-02-28T16:17:51;4.60;91.10
5711;DHT22;61291;52.524;13.422;2023-02-28T16:20:22;4.40;90.90
5711;DHT22;61291;52.524;13.422;2023-02-28T16:22:48;4.30;91.00
5711;DHT22;61291;52.524;13.422;2023-02-28T16:25:26;4.20;90.90
5711;DHT22;61291;52.524;13.422;2023-02-28T16:27:54;4.10;91.40
5711;DHT22;61291;52.524;13.422;2023-02-28T16:30:23;4.10;91.20
5711;DHT22;61291;52.524;13.422;2023-02-28T16:32:50;4.20;91.40
5711;DHT22;61291;52.524;13.422;2023-02-28T16:35:17;4.20;91.30
5711;DHT22;61291;52.524;13.422;2023-02-28T16:37:43;4.10;91.30
5711;DHT22;61291;52.524;13.422;2023-02-28T16:40:17;4.00;91.30
5711;DHT22;61291;52.524;13.422;2023-02-28T16:42:43;3.80;91.50
5711;DHT22;61291;52.524;13.422;2023-02-28T16:45:18;3.80;91.40
5711;DHT22;61291;52.524;13.422;2023-02-28T16:47:45;3.80;91.60
5711;DHT22;61291;52.524;13.422;2023-02-28T16:50:23;3.70;91.60
5711;DHT22;61291;52.524;13.422;2023-02-28T16:52:49;3.70;91.90
5711;DHT22;61291;52.524;13.422;2023-02-28T16:55:18;3.70;91.70
5711;DHT22;61291;52.524;13.422;2023-02-28T16:57:52;3.60;91.70
5711;DHT22;61291;52.524;13.422;2023-02-28T17:00:18;3.50;91.90
5711;DHT22;61291;52.524;13.422;2023-02-28T17:02:44;3.30;91.80
5711;DHT22;61291;52.524;13.422;2023-02-28T17:05:13;3.10;91.80
5711;DHT22;61291;52.524;13.422;2023-02-28T17:07:41;2.90;92.00
5711;DHT22;61291;52.524;13.422;2023-02-28T17:10:17;2.80;92.00
5711;DHT22;61291;52.524;13.422;2023-02-28T17:12:43;2.70;92.30
5711;DHT22;61291;52.524;13.422;2023-02-28T17:15:11;2.60;92.30
5711;DHT22;61291;52.524;13.422;2023-02-28T17:17:37;2.50;92.40
5711;DHT22;61291;52.524;13.422;2023-02-28T17:20:03;2.50;92.60
5711;DHT22;61291;52.524;13.422;2023-02-28T17:22:29;2.40;92.60
5711;DHT22;61291;52.524;13.422;2023-02-28T17:24:55;2.40;92.80
5711;DHT22;61291;52.524;13.422;2023-02-28T17:27:21;2.30;92.90
5711;DHT22;61291;52.524;13.422;2023-02-28T17:29:47;2.30;92.90